Beecher City, Illinois
Current Conditions -  °F | °C
As of 11:15 PM on Friday 24 Oct 2014 (Local Time) from K1H2 Reporting Station
Overcast Overcast  
Wind Chill: 59°   Ceiling: 4000
Heat Index: 59°   Visibility: 10mi
Dew Point: 50°   Wind: 3mph
Humidity: 72%   Direction: 190°S
Pressure: 30.02"   Gusts: NA
Location:  39.19°N, 88.79°W
Report Text: K1H2 250415Z AUTO 19003KT 10SM OVC040 15/10 A3002 RMK AO2 T01510101
Loading
Personal Weather Stations






























Interactive Weather Map
Tropical Storm Tracking
New forecast layout! Learn more

10-Day Weather Forecast

Advertisements
Track Severe Weather on mobile